sensor_id;sensor_type;location;lat;lon;timestamp;temperature;humidity
16511;DHT22;8368;48.772;8.754;2024-03-22T00:01:45;6.30;99.90
16511;DHT22;8368;48.772;8.754;2024-03-22T00:04:12;6.20;99.90
16511;DHT22;8368;48.772;8.754;2024-03-22T00:06:39;6.10;99.90
16511;DHT22;8368;48.772;8.754;2024-03-22T00:09:05;6.10;99.90
16511;DHT22;8368;48.772;8.754;2024-03-22T00:11:32;6.00;99.90
16511;DHT22;8368;48.772;8.754;2024-03-22T00:13:57;6.00;99.90
16511;DHT22;8368;48.772;8.754;2024-03-22T00:16:23;5.90;99.90
16511;DHT22;8368;48.772;8.754;2024-03-22T00:18:48;5.90;99.90
16511;DHT22;8368;48.772;8.754;2024-03-22T00:21:14;5.90;99.90
16511;DHT22;8368;48.772;8.754;2024-03-22T00:23:39;5.80;99.90
16511;DHT22;8368;48.772;8.754;2024-03-22T00:26:05;5.80;99.90
16511;DHT22;8368;48.772;8.754;2024-03-22T00:28:30;5.70;99.90
16511;DHT22;8368;48.772;8.754;2024-03-22T00:30:56;5.70;99.90
16511;DHT22;8368;48.772;8.754;2024-03-22T00:33:21;5.60;99.90
16511;DHT22;8368;48.772;8.754;2024-03-22T00:35:47;5.60;99.90
16511;DHT22;8368;48.772;8.754;2024-03-22T00:38:13;5.60;99.90
16511;DHT22;8368;48.772;8.754;2024-03-22T00:40:38;5.50;99.90
16511;DHT22;8368;48.772;8.754;2024-03-22T00:43:04;5.50;99.90
16511;DHT22;8368;48.772;8.754;2024-03-22T00:45:29;5.40;99.90
16511;DHT22;8368;48.772;8.754;2024-03-22T00:47:55;5.30;99.90
16511;DHT22;8368;48.772;8.754;2024-03-22T00:50:20;5.30;99.90
16511;DHT22;8368;48.772;8.754;2024-03-22T00:52:46;5.30;99.90
16511;DHT22;8368;48.772;8.754;2024-03-22T00:55:11;5.20;99.90
16511;DHT22;8368;48.772;8.754;2024-03-22T00:57:37;5.20;99.90
16511;DHT22;8368;48.772;8.754;2024-03-22T01:00:03;5.20;99.90
16511;DHT22;8368;48.772;8.754;2024-03-22T01:02:29;5.20;99.90
16511;DHT22;8368;48.772;8.754;2024-03-22T01:04:55;5.10;99.90
16511;DHT22;8368;48.772;8.754;2024-03-22T01:07:20;5.10;99.90
16511;DHT22;8368;48.772;8.754;2024-03-22T01:09:46;5.10;99.90
16511;DHT22;8368;48.772;8.754;2024-03-22T01:12:12;5.10;99.90
16511;DHT22;8368;48.772;8.754;2024-03-22T01:14:37;5.20;99.90
16511;DHT22;8368;48.772;8.754;2024-03-22T01:17:03;5.20;99.90
16511;DHT22;8368;48.772;8.754;2024-03-22T01:19:28;5.20;99.90
16511;DHT22;8368;48.772;8.754;2024-03-22T01:21:54;5.20;99.90
16511;DHT22;8368;48.772;8.754;2024-03-22T01:24:19;5.10;99.90
16511;DHT22;8368;48.772;8.754;2024-03-22T01:26:45;4.90;99.90
16511;DHT22;8368;48.772;8.754;2024-03-22T01:29:10;4.90;99.90
16511;DHT22;8368;48.772;8.754;2024-03-22T01:31:36;4.80;99.90
16511;DHT22;8368;48.772;8.754;2024-03-22T01:34:01;4.80;99.90
16511;DHT22;8368;48.772;8.754;2024-03-22T01:36:27;4.90;99.90
16511;DHT22;8368;48.772;8.754;2024-03-22T01:38:52;4.80;99.90
16511;DHT22;8368;48.772;8.754;2024-03-22T01:41:18;4.80;99.90
16511;DHT22;8368;48.772;8.754;2024-03-22T01:43:44;4.80;99.90
16511;DHT22;8368;48.772;8.754;2024-03-22T01:46:09;4.80;99.90
16511;DHT22;8368;48.772;8.754;2024-03-22T01:48:35;4.70;99.90
16511;DHT22;8368;48.772;8.754;2024-03-22T01:51:02;4.70;99.90
16511;DHT22;8368;48.772;8.754;2024-03-22T01:53:28;4.80;99.90
16511;DHT22;8368;48.772;8.754;2024-03-22T01:55:54;4.80;99.90
16511;DHT22;8368;48.772;8.754;2024-03-22T01:58:19;4.80;99.90
16511;DHT22;8368;48.772;8.754;2024-03-22T02:00:47;4.80;99.90
16511;DHT22;8368;48.772;8.754;2024-03-22T02:03:12;4.80;99.90
16511;DHT22;8368;48.772;8.754;2024-03-22T02:05:38;4.80;99.90
16511;DHT22;8368;48.772;8.754;2024-03-22T02:08:04;4.80;99.90
16511;DHT22;8368;48.772;8.754;2024-03-22T02:10:30;4.80;99.90
16511;DHT22;8368;48.772;8.754;2024-03-22T02:12:56;4.80;99.90
16511;DHT22;8368;48.772;8.754;2024-03-22T02:15:21;4.80;99.90
16511;DHT22;8368;48.772;8.754;2024-03-22T02:17:47;4.80;99.90
16511;DHT22;8368;48.772;8.754;2024-03-22T02:20:12;4.90;99.90
16511;DHT22;8368;48.772;8.754;2024-03-22T02:22:38;4.90;99.90
16511;DHT22;8368;48.772;8.754;2024-03-22T02:25:04;4.90;99.90
16511;DHT22;8368;48.772;8.754;2024-03-22T02:27:30;5.00;99.90
16511;DHT22;8368;48.772;8.754;2024-03-22T02:29:55;5.00;99.90
16511;DHT22;8368;48.772;8.754;2024-03-22T02:32:21;5.00;99.90
16511;DHT22;8368;48.772;8.754;2024-03-22T02:34:47;5.10;99.90
16511;DHT22;8368;48.772;8.754;2024-03-22T02:37:12;5.10;99.90
16511;DHT22;8368;48.772;8.754;2024-03-22T02:39:38;5.20;99.90
16511;DHT22;8368;48.772;8.754;2024-03-22T02:42:03;5.20;99.90
16511;DHT22;8368;48.772;8.754;2024-03-22T02:44:29;5.20;99.90
16511;DHT22;8368;48.772;8.754;2024-03-22T02:46:55;5.20;99.90
16511;DHT22;8368;48.772;8.754;2024-03-22T02:49:20;5.30;99.90
16511;DHT22;8368;48.772;8.754;2024-03-22T02:51:46;5.30;99.90
16511;DHT22;8368;48.772;8.754;2024-03-22T02:54:11;5.40;99.90
16511;DHT22;8368;48.772;8.754;2024-03-22T02:56:37;5.50;99.90
16511;DHT22;8368;48.772;8.754;2024-03-22T02:59:02;5.50;99.90
16511;DHT22;8368;48.772;8.754;2024-03-22T03:01:28;5.60;99.90
16511;DHT22;8368;48.772;8.754;2024-03-22T03:03:53;5.70;99.90
16511;DHT22;8368;48.772;8.754;2024-03-22T03:06:20;5.80;99.90
16511;DHT22;8368;48.772;8.754;2024-03-22T03:08:46;5.80;99.90
16511;DHT22;8368;48.772;8.754;2024-03-22T03:11:12;5.90;99.90
16511;DHT22;8368;48.772;8.754;2024-03-22T03:13:38;5.90;99.90
16511;DHT22;8368;48.772;8.754;2024-03-22T03:16:04;6.00;99.90
16511;DHT22;8368;48.772;8.754;2024-03-22T03:18:29;6.00;99.90
16511;DHT22;8368;48.772;8.754;2024-03-22T03:20:55;6.00;99.90
16511;DHT22;8368;48.772;8.754;2024-03-22T03:23:20;6.00;99.90
16511;DHT22;8368;48.772;8.754;2024-03-22T03:25:46;6.10;99.90
16511;DHT22;8368;48.772;8.754;2024-03-22T03:28:12;6.10;99.90
16511;DHT22;8368;48.772;8.754;2024-03-22T03:30:38;6.10;99.90
16511;DHT22;8368;48.772;8.754;2024-03-22T03:33:04;6.20;99.90
16511;DHT22;8368;48.772;8.754;2024-03-22T03:35:30;6.30;99.90
16511;DHT22;8368;48.772;8.754;2024-03-22T03:37:55;6.20;99.90
16511;DHT22;8368;48.772;8.754;2024-03-22T03:40:21;6.20;99.90
16511;DHT22;8368;48.772;8.754;2024-03-22T03:42:50;6.20;99.90
16511;DHT22;8368;48.772;8.754;2024-03-22T03:45:15;6.20;99.90
16511;DHT22;8368;48.772;8.754;2024-03-22T03:47:41;6.30;99.90
16511;DHT22;8368;48.772;8.754;2024-03-22T03:50:07;6.30;99.90
16511;DHT22;8368;48.772;8.754;2024-03-22T03:52:33;6.30;99.90
16511;DHT22;8368;48.772;8.754;2024-03-22T03:54:58;6.40;99.90
16511;DHT22;8368;48.772;8.754;2024-03-22T03:57:24;6.30;99.90
16511;DHT22;8368;48.772;8.754;2024-03-22T03:59:49;6.30;99.90
16511;DHT22;8368;48.772;8.754;2024-03-22T04:02:15;6.20;99.90
16511;DHT22;8368;48.772;8.754;2024-03-22T04:04:40;6.30;99.90
16511;DHT22;8368;48.772;8.754;2024-03-22T04:07:06;6.30;99.90
16511;DHT22;8368;48.772;8.754;2024-03-22T04:09:31;6.30;99.90
16511;DHT22;8368;48.772;8.754;2024-03-22T04:11:58;6.30;99.90
16511;DHT22;8368;48.772;8.754;2024-03-22T04:14:25;6.30;99.90
16511;DHT22;8368;48.772;8.754;2024-03-22T04:16:50;6.30;99.90
16511;DHT22;8368;48.772;8.754;2024-03-22T04:19:16;6.30;99.90
16511;DHT22;8368;48.772;8.754;2024-03-22T04:21:41;6.30;99.90
16511;DHT22;8368;48.772;8.754;2024-03-22T04:24:07;6.30;99.90
16511;DHT22;8368;48.772;8.754;2024-03-22T04:26:32;6.40;99.90
16511;DHT22;8368;48.772;8.754;2024-03-22T04:28:58;6.40;99.90
16511;DHT22;8368;48.772;8.754;2024-03-22T04:31:23;6.40;99.90
16511;DHT22;8368;48.772;8.754;2024-03-22T04:33:49;6.40;99.90
16511;DHT22;8368;48.772;8.754;2024-03-22T04:36:15;6.40;99.90
16511;DHT22;8368;48.772;8.754;2024-03-22T04:38:41;6.40;99.90
16511;DHT22;8368;48.772;8.754;2024-03-22T04:41:06;6.40;99.90
16511;DHT22;8368;48.772;8.754;2024-03-22T04:43:32;6.40;99.90
16511;DHT22;8368;48.772;8.754;2024-03-22T04:45:58;6.40;99.90
16511;DHT22;8368;48.772;8.754;2024-03-22T04:48:24;6.30;99.90
16511;DHT22;8368;48.772;8.754;2024-03-22T04:50:51;6.40;99.90
16511;DHT22;8368;48.772;8.754;2024-03-22T04:53:17;6.40;99.90
16511;DHT22;8368;48.772;8.754;2024-03-22T04:55:46;6.30;99.90
16511;DHT22;8368;48.772;8.754;2024-03-22T04:58:14;6.30;99.90
16511;DHT22;8368;48.772;8.754;2024-03-22T05:00:40;6.30;99.90
16511;DHT22;8368;48.772;8.754;2024-03-22T05:03:05;6.30;99.90
16511;DHT22;8368;48.772;8.754;2024-03-22T05:05:31;6.20;99.90
16511;DHT22;8368;48.772;8.754;2024-03-22T05:07:56;6.20;99.90
16511;DHT22;8368;48.772;8.754;2024-03-22T05:10:22;6.20;99.90
16511;DHT22;8368;48.772;8.754;2024-03-22T05:12:47;6.10;99.90
16511;DHT22;8368;48.772;8.754;2024-03-22T05:15:13;6.10;99.90
16511;DHT22;8368;48.772;8.754;2024-03-22T05:17:39;6.00;99.90
16511;DHT22;8368;48.772;8.754;2024-03-22T05:20:05;5.90;99.90
16511;DHT22;8368;48.772;8.754;2024-03-22T05:22:33;5.80;99.90
16511;DHT22;8368;48.772;8.754;2024-03-22T05:24:59;5.70;99.90
16511;DHT22;8368;48.772;8.754;2024-03-22T05:27:24;5.70;99.90
16511;DHT22;8368;48.772;8.754;2024-03-22T05:29:50;5.70;99.90
16511;DHT22;8368;48.772;8.754;2024-03-22T05:32:15;5.60;99.90
16511;DHT22;8368;48.772;8.754;2024-03-22T05:34:41;5.60;99.90
16511;DHT22;8368;48.772;8.754;2024-03-22T05:37:06;5.60;99.90
16511;DHT22;8368;48.772;8.754;2024-03-22T05:39:34;5.50;99.90
16511;DHT22;8368;48.772;8.754;2024-03-22T05:41:59;5.50;99.90
16511;DHT22;8368;48.772;8.754;2024-03-22T05:44:25;5.40;99.90
16511;DHT22;8368;48.772;8.754;2024-03-22T05:46:50;5.40;99.90
16511;DHT22;8368;48.772;8.754;2024-03-22T05:49:16;5.40;99.90
16511;DHT22;8368;48.772;8.754;2024-03-22T05:51:42;5.40;99.90
16511;DHT22;8368;48.772;8.754;2024-03-22T05:54:07;5.40;99.90
16511;DHT22;8368;48.772;8.754;2024-03-22T05:56:33;5.40;99.90
16511;DHT22;8368;48.772;8.754;2024-03-22T05:58:59;5.40;99.90
16511;DHT22;8368;48.772;8.754;2024-03-22T06:01:25;5.40;99.90
16511;DHT22;8368;48.772;8.754;2024-03-22T06:03:50;5.40;99.90
16511;DHT22;8368;48.772;8.754;2024-03-22T06:06:16;5.40;99.90
16511;DHT22;8368;48.772;8.754;2024-03-22T06:08:41;5.40;99.90
16511;DHT22;8368;48.772;8.754;2024-03-22T06:11:09;5.40;99.90
16511;DHT22;8368;48.772;8.754;2024-03-22T06:13:34;5.30;99.90
16511;DHT22;8368;48.772;8.754;2024-03-22T06:16:01;5.30;99.90
16511;DHT22;8368;48.772;8.754;2024-03-22T06:18:27;5.30;99.90
16511;DHT22;8368;48.772;8.754;2024-03-22T06:20:52;5.40;99.90
16511;DHT22;8368;48.772;8.754;2024-03-22T06:23:23;5.40;99.90
16511;DHT22;8368;48.772;8.754;2024-03-22T06:25:55;5.50;99.90
16511;DHT22;8368;48.772;8.754;2024-03-22T06:28:21;5.60;99.90
16511;DHT22;8368;48.772;8.754;2024-03-22T06:30:46;5.70;99.90
16511;DHT22;8368;48.772;8.754;2024-03-22T06:33:12;5.80;99.90
16511;DHT22;8368;48.772;8.754;2024-03-22T06:35:38;5.90;99.90
16511;DHT22;8368;48.772;8.754;2024-03-22T06:38:03;6.00;99.90
16511;DHT22;8368;48.772;8.754;2024-03-22T06:40:29;6.20;99.90
16511;DHT22;8368;48.772;8.754;2024-03-22T06:42:55;6.30;99.90
16511;DHT22;8368;48.772;8.754;2024-03-22T06:45:21;6.40;99.90
16511;DHT22;8368;48.772;8.754;2024-03-22T06:47:47;6.50;99.90
16511;DHT22;8368;48.772;8.754;2024-03-22T06:50:13;6.60;99.90
16511;DHT22;8368;48.772;8.754;2024-03-22T06:52:38;6.70;99.90
16511;DHT22;8368;48.772;8.754;2024-03-22T06:55:04;6.80;99.90
16511;DHT22;8368;48.772;8.754;2024-03-22T06:57:30;6.90;99.90
16511;DHT22;8368;48.772;8.754;2024-03-22T06:59:55;7.00;99.90
16511;DHT22;8368;48.772;8.754;2024-03-22T07:02:21;7.10;99.90
16511;DHT22;8368;48.772;8.754;2024-03-22T07:04:47;7.20;99.90
16511;DHT22;8368;48.772;8.754;2024-03-22T07:07:12;7.30;99.90
16511;DHT22;8368;48.772;8.754;2024-03-22T07:09:38;7.40;99.90
16511;DHT22;8368;48.772;8.754;2024-03-22T07:12:03;7.50;99.90
16511;DHT22;8368;48.772;8.754;2024-03-22T07:14:29;7.50;99.90
16511;DHT22;8368;48.772;8.754;2024-03-22T07:16:55;7.60;99.90
16511;DHT22;8368;48.772;8.754;2024-03-22T07:19:20;7.70;99.90
16511;DHT22;8368;48.772;8.754;2024-03-22T07:21:47;7.80;99.90
16511;DHT22;8368;48.772;8.754;2024-03-22T07:24:12;7.90;99.90
16511;DHT22;8368;48.772;8.754;2024-03-22T07:26:38;8.00;99.90
16511;DHT22;8368;48.772;8.754;2024-03-22T07:29:03;8.10;99.90
16511;DHT22;8368;48.772;8.754;2024-03-22T07:31:29;8.20;99.90
16511;DHT22;8368;48.772;8.754;2024-03-22T07:33:54;8.30;99.90
16511;DHT22;8368;48.772;8.754;2024-03-22T07:36:21;8.40;99.90
16511;DHT22;8368;48.772;8.754;2024-03-22T07:38:47;8.50;99.90
16511;DHT22;8368;48.772;8.754;2024-03-22T07:41:14;8.80;99.90
16511;DHT22;8368;48.772;8.754;2024-03-22T07:43:40;9.10;99.90
16511;DHT22;8368;48.772;8.754;2024-03-22T07:46:05;9.40;99.90
16511;DHT22;8368;48.772;8.754;2024-03-22T07:48:31;9.60;99.90
16511;DHT22;8368;48.772;8.754;2024-03-22T07:50:58;9.80;99.90
16511;DHT22;8368;48.772;8.754;2024-03-22T07:53:24;9.90;99.90
16511;DHT22;8368;48.772;8.754;2024-03-22T07:55:49;10.00;99.90
16511;DHT22;8368;48.772;8.754;2024-03-22T07:58:15;10.20;99.90
16511;DHT22;8368;48.772;8.754;2024-03-22T08:00:41;10.30;99.90
16511;DHT22;8368;48.772;8.754;2024-03-22T08:03:07;10.50;99.90
16511;DHT22;8368;48.772;8.754;2024-03-22T08:05:33;10.70;99.90
16511;DHT22;8368;48.772;8.754;2024-03-22T08:07:58;10.60;99.90
16511;DHT22;8368;48.772;8.754;2024-03-22T08:10:24;10.80;99.90
16511;DHT22;8368;48.772;8.754;2024-03-22T08:12:49;10.90;99.90
16511;DHT22;8368;48.772;8.754;2024-03-22T08:15:15;11.00;99.90
16511;DHT22;8368;48.772;8.754;2024-03-22T08:17:40;11.20;99.90
16511;DHT22;8368;48.772;8.754;2024-03-22T08:20:06;11.30;99.90
16511;DHT22;8368;48.772;8.754;2024-03-22T08:22:32;11.50;99.90
16511;DHT22;8368;48.772;8.754;2024-03-22T08:24:58;11.60;99.90
16511;DHT22;8368;48.772;8.754;2024-03-22T08:27:23;11.70;99.90
16511;DHT22;8368;48.772;8.754;2024-03-22T08:29:50;11.80;99.90
16511;DHT22;8368;48.772;8.754;2024-03-22T08:32:15;11.70;99.90
16511;DHT22;8368;48.772;8.754;2024-03-22T08:34:41;11.90;99.90
16511;DHT22;8368;48.772;8.754;2024-03-22T08:37:06;12.00;99.90
16511;DHT22;8368;48.772;8.754;2024-03-22T08:39:32;12.00;99.90
16511;DHT22;8368;48.772;8.754;2024-03-22T08:41:58;12.10;99.90
16511;DHT22;8368;48.772;8.754;2024-03-22T08:44:24;12.10;99.90
16511;DHT22;8368;48.772;8.754;2024-03-22T08:46:49;12.30;99.90
16511;DHT22;8368;48.772;8.754;2024-03-22T08:49:15;12.30;99.90
16511;DHT22;8368;48.772;8.754;2024-03-22T08:51:41;12.40;99.90
16511;DHT22;8368;48.772;8.754;2024-03-22T08:54:06;12.50;99.90
16511;DHT22;8368;48.772;8.754;2024-03-22T08:56:32;12.70;99.90
16511;DHT22;8368;48.772;8.754;2024-03-22T08:58:58;12.90;99.90
16511;DHT22;8368;48.772;8.754;2024-03-22T09:01:24;13.00;99.90
16511;DHT22;8368;48.772;8.754;2024-03-22T09:03:50;13.10;99.90
16511;DHT22;8368;48.772;8.754;2024-03-22T09:06:16;13.40;99.90
16511;DHT22;8368;48.772;8.754;2024-03-22T09:08:42;13.60;99.90
16511;DHT22;8368;48.772;8.754;2024-03-22T09:11:07;13.70;99.90
16511;DHT22;8368;48.772;8.754;2024-03-22T09:13:33;13.80;99.90
16511;DHT22;8368;48.772;8.754;2024-03-22T09:16:01;13.80;99.90
16511;DHT22;8368;48.772;8.754;2024-03-22T09:18:26;13.90;99.90
16511;DHT22;8368;48.772;8.754;2024-03-22T09:20:53;14.00;99.90
16511;DHT22;8368;48.772;8.754;2024-03-22T09:23:18;14.10;99.90
16511;DHT22;8368;48.772;8.754;2024-03-22T09:25:45;14.00;99.90
16511;DHT22;8368;48.772;8.754;2024-03-22T09:28:10;14.00;99.90
16511;DHT22;8368;48.772;8.754;2024-03-22T09:30:39;14.00;99.90
16511;DHT22;8368;48.772;8.754;2024-03-22T09:33:08;14.10;99.90
16511;DHT22;8368;48.772;8.754;2024-03-22T09:35:34;14.20;99.90
16511;DHT22;8368;48.772;8.754;2024-03-22T09:38:00;14.30;99.90
16511;DHT22;8368;48.772;8.754;2024-03-22T09:40:25;14.40;99.90
16511;DHT22;8368;48.772;8.754;2024-03-22T09:42:53;14.40;99.90
16511;DHT22;8368;48.772;8.754;2024-03-22T09:45:19;14.50;99.90
16511;DHT22;8368;48.772;8.754;2024-03-22T09:47:49;14.60;99.90
16511;DHT22;8368;48.772;8.754;2024-03-22T09:50:15;14.50;99.90
16511;DHT22;8368;48.772;8.754;2024-03-22T09:52:41;14.50;99.90
16511;DHT22;8368;48.772;8.754;2024-03-22T09:55:08;14.50;99.90
16511;DHT22;8368;48.772;8.754;2024-03-22T09:57:39;14.40;99.90
16511;DHT22;8368;48.772;8.754;2024-03-22T10:00:06;14.40;99.90
16511;DHT22;8368;48.772;8.754;2024-03-22T10:02:34;14.30;99.90
16511;DHT22;8368;48.772;8.754;2024-03-22T10:05:00;14.50;99.90
16511;DHT22;8368;48.772;8.754;2024-03-22T10:07:27;14.50;99.90
16511;DHT22;8368;48.772;8.754;2024-03-22T10:09:53;14.50;99.90
16511;DHT22;8368;48.772;8.754;2024-03-22T10:12:18;14.50;99.90
16511;DHT22;8368;48.772;8.754;2024-03-22T10:14:45;14.60;99.90
16511;DHT22;8368;48.772;8.754;2024-03-22T10:17:11;14.80;99.90
16511;DHT22;8368;48.772;8.754;2024-03-22T10:19:37;14.70;99.90
16511;DHT22;8368;48.772;8.754;2024-03-22T10:22:03;14.90;99.90
16511;DHT22;8368;48.772;8.754;2024-03-22T10:24:29;15.00;99.90
16511;DHT22;8368;48.772;8.754;2024-03-22T10:26:56;15.00;99.90
16511;DHT22;8368;48.772;8.754;2024-03-22T10:29:22;15.10;99.90
16511;DHT22;8368;48.772;8.754;2024-03-22T10:31:49;15.30;99.90
16511;DHT22;8368;48.772;8.754;2024-03-22T10:34:16;15.50;99.90
16511;DHT22;8368;48.772;8.754;2024-03-22T10:36:43;15.60;99.90
16511;DHT22;8368;48.772;8.754;2024-03-22T10:39:11;15.70;99.90
16511;DHT22;8368;48.772;8.754;2024-03-22T10:41:38;15.90;99.90
16511;DHT22;8368;48.772;8.754;2024-03-22T10:44:03;16.00;99.90
16511;DHT22;8368;48.772;8.754;2024-03-22T10:46:30;16.10;99.90
16511;DHT22;8368;48.772;8.754;2024-03-22T10:48:57;16.30;99.90
16511;DHT22;8368;48.772;8.754;2024-03-22T10:51:24;16.40;99.90
16511;DHT22;8368;48.772;8.754;2024-03-22T10:53:53;16.60;99.90
16511;DHT22;8368;48.772;8.754;2024-03-22T10:56:21;16.80;99.90
16511;DHT22;8368;48.772;8.754;2024-03-22T10:58:48;16.70;99.90
16511;DHT22;8368;48.772;8.754;2024-03-22T11:01:25;16.70;99.90
16511;DHT22;8368;48.772;8.754;2024-03-22T11:03:51;16.70;99.90
16511;DHT22;8368;48.772;8.754;2024-03-22T11:06:19;16.90;99.90
16511;DHT22;8368;48.772;8.754;2024-03-22T11:08:50;16.90;99.90
16511;DHT22;8368;48.772;8.754;2024-03-22T11:11:18;16.90;99.90
16511;DHT22;8368;48.772;8.754;2024-03-22T11:13:47;16.80;99.90
16511;DHT22;8368;48.772;8.754;2024-03-22T11:16:14;16.90;99.90
16511;DHT22;8368;48.772;8.754;2024-03-22T11:18:39;17.10;99.90
16511;DHT22;8368;48.772;8.754;2024-03-22T11:21:05;17.30;99.90
16511;DHT22;8368;48.772;8.754;2024-03-22T11:23:34;17.40;99.90
16511;DHT22;8368;48.772;8.754;2024-03-22T11:26:01;17.40;99.90
16511;DHT22;8368;48.772;8.754;2024-03-22T11:28:27;17.40;99.90
16511;DHT22;8368;48.772;8.754;2024-03-22T11:30:52;17.40;99.90
16511;DHT22;8368;48.772;8.754;2024-03-22T11:33:18;17.50;99.90
16511;DHT22;8368;48.772;8.754;2024-03-22T11:35:44;17.50;99.90
16511;DHT22;8368;48.772;8.754;2024-03-22T11:38:09;17.80;99.90
16511;DHT22;8368;48.772;8.754;2024-03-22T11:40:36;17.70;99.90
16511;DHT22;8368;48.772;8.754;2024-03-22T11:43:02;17.70;99.90
16511;DHT22;8368;48.772;8.754;2024-03-22T11:45:29;17.60;99.90
16511;DHT22;8368;48.772;8.754;2024-03-22T11:47:57;17.60;99.90
16511;DHT22;8368;48.772;8.754;2024-03-22T11:50:22;17.70;99.90
16511;DHT22;8368;48.772;8.754;2024-03-22T11:52:48;17.60;99.90
16511;DHT22;8368;48.772;8.754;2024-03-22T11:55:14;17.70;99.90
16511;DHT22;8368;48.772;8.754;2024-03-22T11:57:40;17.80;99.90
16511;DHT22;8368;48.772;8.754;2024-03-22T12:00:06;18.00;99.90
16511;DHT22;8368;48.772;8.754;2024-03-22T12:02:37;17.90;99.90
16511;DHT22;8368;48.772;8.754;2024-03-22T12:05:04;17.90;99.90
16511;DHT22;8368;48.772;8.754;2024-03-22T12:07:30;18.00;99.90
16511;DHT22;8368;48.772;8.754;2024-03-22T12:09:56;18.00;99.90
16511;DHT22;8368;48.772;8.754;2024-03-22T12:12:22;18.10;99.90
16511;DHT22;8368;48.772;8.754;2024-03-22T12:14:48;18.10;99.90
16511;DHT22;8368;48.772;8.754;2024-03-22T12:17:16;18.20;99.90
16511;DHT22;8368;48.772;8.754;2024-03-22T12:19:42;18.30;99.90
16511;DHT22;8368;48.772;8.754;2024-03-22T12:22:07;18.30;99.90
16511;DHT22;8368;48.772;8.754;2024-03-22T12:24:33;18.30;99.90
16511;DHT22;8368;48.772;8.754;2024-03-22T12:26:58;18.30;99.90
16511;DHT22;8368;48.772;8.754;2024-03-22T12:29:24;18.10;99.90
16511;DHT22;8368;48.772;8.754;2024-03-22T12:31:51;18.20;99.90
16511;DHT22;8368;48.772;8.754;2024-03-22T12:34:16;18.30;99.90
16511;DHT22;8368;48.772;8.754;2024-03-22T12:36:43;18.50;99.90
16511;DHT22;8368;48.772;8.754;2024-03-22T12:39:08;18.60;99.90
16511;DHT22;8368;48.772;8.754;2024-03-22T12:41:34;18.70;99.90
16511;DHT22;8368;48.772;8.754;2024-03-22T12:44:00;18.80;99.90
16511;DHT22;8368;48.772;8.754;2024-03-22T12:46:26;18.90;99.90
16511;DHT22;8368;48.772;8.754;2024-03-22T12:48:51;18.90;99.90
16511;DHT22;8368;48.772;8.754;2024-03-22T12:51:17;19.10;99.90
16511;DHT22;8368;48.772;8.754;2024-03-22T12:53:42;19.30;99.90
16511;DHT22;8368;48.772;8.754;2024-03-22T12:56:08;19.50;99.90
16511;DHT22;8368;48.772;8.754;2024-03-22T12:58:34;19.60;99.90
16511;DHT22;8368;48.772;8.754;2024-03-22T13:00:59;19.50;99.90
16511;DHT22;8368;48.772;8.754;2024-03-22T13:03:26;19.40;99.90
16511;DHT22;8368;48.772;8.754;2024-03-22T13:05:52;19.30;99.90
16511;DHT22;8368;48.772;8.754;2024-03-22T13:08:18;18.90;99.90
16511;DHT22;8368;48.772;8.754;2024-03-22T13:10:45;18.70;99.90
16511;DHT22;8368;48.772;8.754;2024-03-22T13:13:11;18.60;99.90
16511;DHT22;8368;48.772;8.754;2024-03-22T13:15:37;18.40;99.90
16511;DHT22;8368;48.772;8.754;2024-03-22T13:18:03;18.50;99.90
16511;DHT22;8368;48.772;8.754;2024-03-22T13:20:29;18.60;99.90
16511;DHT22;8368;48.772;8.754;2024-03-22T13:22:55;18.50;99.90
16511;DHT22;8368;48.772;8.754;2024-03-22T13:25:21;18.50;99.90
16511;DHT22;8368;48.772;8.754;2024-03-22T13:27:46;18.30;99.90
16511;DHT22;8368;48.772;8.754;2024-03-22T13:30:12;18.30;99.90
16511;DHT22;8368;48.772;8.754;2024-03-22T13:32:41;18.10;99.90
16511;DHT22;8368;48.772;8.754;2024-03-22T13:35:07;18.40;99.90
16511;DHT22;8368;48.772;8.754;2024-03-22T13:37:32;18.50;99.90
16511;DHT22;8368;48.772;8.754;2024-03-22T13:39:58;18.40;99.90
16511;DHT22;8368;48.772;8.754;2024-03-22T13:42:25;18.30;99.90
16511;DHT22;8368;48.772;8.754;2024-03-22T13:44:51;18.10;99.90
16511;DHT22;8368;48.772;8.754;2024-03-22T13:47:17;18.00;99.90
16511;DHT22;8368;48.772;8.754;2024-03-22T13:49:43;17.80;99.90
16511;DHT22;8368;48.772;8.754;2024-03-22T13:52:09;18.10;99.90
16511;DHT22;8368;48.772;8.754;2024-03-22T13:54:35;18.30;99.90
16511;DHT22;8368;48.772;8.754;2024-03-22T13:57:01;18.30;99.90
16511;DHT22;8368;48.772;8.754;2024-03-22T13:59:29;18.30;99.90
16511;DHT22;8368;48.772;8.754;2024-03-22T14:01:56;18.20;99.90
16511;DHT22;8368;48.772;8.754;2024-03-22T14:04:22;18.00;99.90
16511;DHT22;8368;48.772;8.754;2024-03-22T14:06:48;18.00;99.90
16511;DHT22;8368;48.772;8.754;2024-03-22T14:09:14;17.70;99.90
16511;DHT22;8368;48.772;8.754;2024-03-22T14:11:40;17.50;99.90
16511;DHT22;8368;48.772;8.754;2024-03-22T14:14:10;17.40;99.90
16511;DHT22;8368;48.772;8.754;2024-03-22T14:16:39;17.40;99.90
16511;DHT22;8368;48.772;8.754;2024-03-22T14:19:05;17.40;99.90
16511;DHT22;8368;48.772;8.754;2024-03-22T14:21:30;17.40;99.90
16511;DHT22;8368;48.772;8.754;2024-03-22T14:23:56;17.40;99.90
16511;DHT22;8368;48.772;8.754;2024-03-22T14:26:22;17.40;99.90
16511;DHT22;8368;48.772;8.754;2024-03-22T14:28:49;17.40;99.90
16511;DHT22;8368;48.772;8.754;2024-03-22T14:31:15;17.40;99.90
16511;DHT22;8368;48.772;8.754;2024-03-22T14:33:41;17.40;99.90
16511;DHT22;8368;48.772;8.754;2024-03-22T14:36:07;17.30;99.90
16511;DHT22;8368;48.772;8.754;2024-03-22T14:38:34;17.20;99.90
16511;DHT22;8368;48.772;8.754;2024-03-22T14:41:00;17.20;99.90
16511;DHT22;8368;48.772;8.754;2024-03-22T14:43:26;17.00;99.90
16511;DHT22;8368;48.772;8.754;2024-03-22T14:45:55;16.80;99.90
16511;DHT22;8368;48.772;8.754;2024-03-22T14:48:21;16.60;99.90
16511;DHT22;8368;48.772;8.754;2024-03-22T14:50:47;16.60;99.90
16511;DHT22;8368;48.772;8.754;2024-03-22T14:53:14;16.50;99.90
16511;DHT22;8368;48.772;8.754;2024-03-22T14:55:51;16.50;99.90
16511;DHT22;8368;48.772;8.754;2024-03-22T14:58:16;16.50;99.90
16511;DHT22;8368;48.772;8.754;2024-03-22T15:00:42;16.30;99.90
16511;DHT22;8368;48.772;8.754;2024-03-22T15:03:15;16.20;99.90
16511;DHT22;8368;48.772;8.754;2024-03-22T15:05:40;16.30;99.90
16511;DHT22;8368;48.772;8.754;2024-03-22T15:08:06;16.20;99.90
16511;DHT22;8368;48.772;8.754;2024-03-22T15:10:31;16.20;99.90
16511;DHT22;8368;48.772;8.754;2024-03-22T15:12:57;16.20;99.90
16511;DHT22;8368;48.772;8.754;2024-03-22T15:15:23;16.20;99.90
16511;DHT22;8368;48.772;8.754;2024-03-22T15:17:49;16.20;99.90
16511;DHT22;8368;48.772;8.754;2024-03-22T15:20:15;16.10;99.90
16511;DHT22;8368;48.772;8.754;2024-03-22T15:22:41;16.10;99.90
16511;DHT22;8368;48.772;8.754;2024-03-22T15:25:06;16.10;99.90
16511;DHT22;8368;48.772;8.754;2024-03-22T15:27:32;16.00;99.90
16511;DHT22;8368;48.772;8.754;2024-03-22T15:29:57;16.10;99.90
16511;DHT22;8368;48.772;8.754;2024-03-22T15:32:23;16.00;99.90
16511;DHT22;8368;48.772;8.754;2024-03-22T15:34:52;16.00;99.90
16511;DHT22;8368;48.772;8.754;2024-03-22T15:37:17;16.00;99.90
16511;DHT22;8368;48.772;8.754;2024-03-22T15:39:43;16.00;99.90
16511;DHT22;8368;48.772;8.754;2024-03-22T15:42:08;15.90;99.90
16511;DHT22;8368;48.772;8.754;2024-03-22T15:44:34;15.80;99.90
16511;DHT22;8368;48.772;8.754;2024-03-22T15:46:59;15.70;99.90